createdAt,value
2023-07-17T00:00:20.849Z,0
2023-07-17T00:02:00.609Z,0
2023-07-17T00:03:40.371Z,0
2023-07-17T00:05:20.173Z,0
2023-07-17T00:06:59.907Z,0
2023-07-17T00:08:39.679Z,0
2023-07-17T00:10:19.579Z,0
2023-07-17T00:11:59.211Z,0
2023-07-17T00:13:39.000Z,0
2023-07-17T00:15:18.736Z,0
2023-07-17T00:16:58.532Z,0
2023-07-17T00:18:38.281Z,0
2023-07-17T00:20:18.045Z,0
2023-07-17T00:21:57.814Z,0
2023-07-17T00:23:37.587Z,0
2023-07-17T00:25:17.365Z,0
2023-07-17T00:26:57.107Z,0
2023-07-17T00:28:36.908Z,0
2023-07-17T00:30:16.655Z,0
2023-07-17T00:31:56.423Z,0
2023-07-17T00:33:36.196Z,0
2023-07-17T00:35:15.955Z,0
2023-07-17T00:36:55.729Z,0
2023-07-17T00:38:35.496Z,0
2023-07-17T00:40:15.254Z,0
2023-07-17T00:41:55.025Z,0
2023-07-17T00:43:34.789Z,0
2023-07-17T00:45:14.564Z,0
2023-07-17T00:46:54.333Z,0
2023-07-17T00:48:34.099Z,0
2023-07-17T00:50:13.851Z,0
2023-07-17T00:51:53.631Z,0
2023-07-17T00:53:33.445Z,0
2023-07-17T00:55:13.173Z,0
2023-07-17T00:56:52.931Z,0
2023-07-17T00:58:32.701Z,0
2023-07-17T01:00:12.479Z,0
2023-07-17T01:01:52.242Z,0
2023-07-17T01:03:32.003Z,0
2023-07-17T01:05:11.776Z,0
2023-07-17T01:06:51.568Z,0
2023-07-17T01:08:31.292Z,0
2023-07-17T01:10:11.086Z,0
2023-07-17T01:11:50.841Z,0
2023-07-17T01:13:30.602Z,0
2023-07-17T01:15:10.382Z,0
2023-07-17T01:16:50.140Z,0
2023-07-17T01:18:29.903Z,0
2023-07-17T01:20:09.679Z,0
2023-07-17T01:21:49.442Z,0
2023-07-17T01:23:29.226Z,0
2023-07-17T01:25:08.989Z,0
2023-07-17T01:26:48.752Z,0
2023-07-17T01:28:28.505Z,0
2023-07-17T01:30:08.286Z,0
2023-07-17T01:31:48.051Z,0
2023-07-17T01:33:27.820Z,0
2023-07-17T01:35:07.825Z,0
2023-07-17T01:36:47.366Z,0
2023-07-17T01:38:27.133Z,0
2023-07-17T01:40:06.894Z,0
2023-07-17T01:41:46.659Z,0
2023-07-17T01:43:26.431Z,0
2023-07-17T01:45:06.196Z,0
2023-07-17T01:46:45.961Z,0
2023-07-17T01:48:25.742Z,0
2023-07-17T01:50:05.502Z,0
2023-07-17T01:51:45.261Z,0
2023-07-17T01:53:25.026Z,0
2023-07-17T01:55:04.822Z,0
2023-07-17T01:56:44.573Z,0
2023-07-17T01:58:24.338Z,0
2023-07-17T02:00:04.144Z,0
2023-07-17T02:01:43.877Z,0
2023-07-17T02:03:23.631Z,0
2023-07-17T02:05:03.411Z,0
2023-07-17T02:06:43.178Z,0
2023-07-17T02:08:22.948Z,0
2023-07-17T02:10:02.703Z,0
2023-07-17T02:11:42.467Z,0
2023-07-17T02:13:22.246Z,0
2023-07-17T02:15:02.007Z,0
2023-07-17T02:16:41.779Z,0
2023-07-17T02:18:21.545Z,0
2023-07-17T02:20:01.318Z,0
2023-07-17T02:21:41.072Z,0
2023-07-17T02:23:20.856Z,0
2023-07-17T02:25:00.638Z,0
2023-07-17T02:26:40.383Z,0
2023-07-17T02:28:20.170Z,0
2023-07-17T02:29:59.953Z,0
2023-07-17T02:31:39.690Z,0
2023-07-17T02:33:19.453Z,0
2023-07-17T02:34:59.222Z,0
2023-07-17T02:36:38.991Z,0
2023-07-17T02:38:18.753Z,0
2023-07-17T02:39:58.527Z,0
2023-07-17T02:41:38.287Z,0
2023-07-17T02:43:18.054Z,0
2023-07-17T02:44:57.828Z,0
2023-07-17T02:46:37.589Z,0
2023-07-17T02:48:17.345Z,0
2023-07-17T02:49:57.152Z,0
2023-07-17T02:51:36.902Z,0
2023-07-17T02:53:16.659Z,0
2023-07-17T02:54:56.422Z,0
2023-07-17T02:56:36.201Z,0
2023-07-17T02:58:15.965Z,0
2023-07-17T02:59:55.729Z,0
2023-07-17T03:01:35.504Z,0
2023-07-17T03:03:15.271Z,0
2023-07-17T03:04:55.043Z,0
2023-07-17T03:06:34.813Z,0
2023-07-17T03:08:14.575Z,0
2023-07-17T03:09:54.346Z,0
2023-07-17T03:11:34.103Z,0
2023-07-17T03:13:13.879Z,0
2023-07-17T03:14:53.634Z,0
2023-07-17T03:16:33.416Z,0
2023-07-17T03:18:13.181Z,0
2023-07-17T03:19:52.938Z,0
2023-07-17T03:21:32.706Z,0
2023-07-17T03:23:12.484Z,0
2023-07-17T03:24:52.259Z,0
2023-07-17T03:26:32.011Z,0
2023-07-17T03:28:11.795Z,0.77
2023-07-17T03:29:51.561Z,1.03
2023-07-17T03:31:31.329Z,2.06
2023-07-17T03:33:11.106Z,1.55
2023-07-17T03:34:50.873Z,2.06
2023-07-17T03:36:30.635Z,3.36
2023-07-17T03:38:10.409Z,4.66
2023-07-17T03:39:50.201Z,3.87
2023-07-17T03:41:29.947Z,11.46
2023-07-17T03:43:09.713Z,9.12
2023-07-17T03:44:49.481Z,4.67
2023-07-17T03:46:29.257Z,4.94
2023-07-17T03:48:09.047Z,5.47
2023-07-17T03:49:48.827Z,5.21
2023-07-17T03:51:28.653Z,5.74
2023-07-17T03:53:08.340Z,6
2023-07-17T03:54:48.112Z,6.8
2023-07-17T03:56:27.880Z,7.59
2023-07-17T03:58:07.678Z,9.43
2023-07-17T03:59:47.446Z,9.97
2023-07-17T04:01:27.208Z,9.46
2023-07-17T04:03:06.973Z,9.47
2023-07-17T04:04:46.728Z,8.95
2023-07-17T04:06:26.513Z,7.37
2023-07-17T04:08:06.278Z,9.76
2023-07-17T04:09:46.058Z,9.77
2023-07-17T04:11:25.815Z,10.05
2023-07-17T04:13:05.589Z,9.53
2023-07-17T04:14:45.364Z,9.01
2023-07-17T04:16:25.129Z,9.81
2023-07-17T04:18:04.897Z,11.69
2023-07-17T04:19:44.679Z,13.32
2023-07-17T04:21:24.443Z,15.23
2023-07-17T04:23:04.219Z,16.61
2023-07-17T04:24:43.987Z,17.73
2023-07-17T04:26:23.757Z,18.03
2023-07-17T04:28:03.550Z,16.96
2023-07-17T04:29:43.294Z,17.01
2023-07-17T04:31:23.061Z,15.39
2023-07-17T04:33:02.841Z,16.24
2023-07-17T04:34:42.606Z,15.7
2023-07-17T04:36:22.413Z,15.99
2023-07-17T04:38:02.137Z,15.18
2023-07-17T04:39:41.902Z,16.01
2023-07-17T04:41:21.699Z,15.75
2023-07-17T04:43:01.458Z,37.99
2023-07-17T04:44:41.238Z,18.57
2023-07-17T04:46:20.999Z,19.41
2023-07-17T04:48:00.835Z,21.09
2023-07-17T04:49:40.534Z,23.32
2023-07-17T04:51:20.314Z,25.6
2023-07-17T04:53:00.095Z,28.46
2023-07-17T04:54:39.863Z,33.04
2023-07-17T04:56:19.631Z,34.84
2023-07-17T04:57:59.392Z,37.59
2023-07-17T04:59:39.185Z,38.66
2023-07-17T05:01:18.935Z,42.78
2023-07-17T05:02:58.693Z,43.97
2023-07-17T05:04:38.530Z,44.42
2023-07-17T05:06:18.251Z,39.27
2023-07-17T05:07:58.012Z,41.47
2023-07-17T05:09:37.783Z,51.13
2023-07-17T05:11:17.556Z,42.9
2023-07-17T05:12:57.320Z,42.31
2023-07-17T05:14:37.096Z,42.61
2023-07-17T05:16:16.858Z,42.63
2023-07-17T05:17:56.639Z,41.74
2023-07-17T05:19:36.409Z,42.02
2023-07-17T05:21:16.180Z,41.41
2023-07-17T05:22:55.941Z,40.83
2023-07-17T05:24:35.729Z,43.44
2023-07-17T05:26:15.505Z,39.96
2023-07-17T05:27:55.253Z,39.38
2023-07-17T05:29:35.095Z,39.68
2023-07-17T05:31:14.841Z,39.63
2023-07-17T05:32:54.574Z,39.95
2023-07-17T05:34:34.339Z,41.39
2023-07-17T05:36:14.124Z,39.66
2023-07-17T05:37:53.880Z,39.97
2023-07-17T05:39:33.646Z,39.06
2023-07-17T05:41:13.425Z,39.06
2023-07-17T05:42:53.194Z,38.49
2023-07-17T05:44:32.974Z,38.49
2023-07-17T05:46:12.729Z,37.04
2023-07-17T05:47:52.511Z,39.63
2023-07-17T05:49:32.274Z,39.04
2023-07-17T05:51:12.094Z,37.89
2023-07-17T05:52:51.817Z,39.06
2023-07-17T05:54:31.589Z,38.47
2023-07-17T05:56:11.363Z,39.34
2023-07-17T05:57:51.150Z,37.62
2023-07-17T05:59:30.978Z,37.59
2023-07-17T06:01:10.678Z,37
2023-07-17T06:02:50.434Z,39.33
2023-07-17T06:04:30.215Z,36.43
2023-07-17T06:06:09.982Z,37
2023-07-17T06:07:49.758Z,37.3
2023-07-17T06:09:29.530Z,37.89
2023-07-17T06:11:09.291Z,35.86
2023-07-17T06:12:49.073Z,39.04
2023-07-17T06:14:28.871Z,37.3
2023-07-17T06:16:08.601Z,36.22
2023-07-17T06:17:48.442Z,38.73
2023-07-17T06:19:28.175Z,39.88
2023-07-17T06:21:07.920Z,35.27
2023-07-17T06:22:47.702Z,37
2023-07-17T06:24:27.483Z,37.58
2023-07-17T06:26:07.259Z,39.04
2023-07-17T06:27:47.029Z,36.41
2023-07-17T06:29:26.769Z,39.02
2023-07-17T06:31:06.607Z,39
2023-07-17T06:32:46.329Z,36.97
2023-07-17T06:34:26.070Z,34.98
2023-07-17T06:36:05.874Z,34.98
2023-07-17T06:37:45.636Z,38.43
2023-07-17T06:39:25.398Z,38.43
2023-07-17T06:41:05.162Z,36.4
2023-07-17T06:42:44.938Z,40.14
2023-07-17T06:44:24.721Z,34.39
2023-07-17T06:46:04.478Z,38.14
2023-07-17T06:47:44.257Z,38.14
2023-07-17T06:49:24.031Z,35.53
2023-07-17T06:51:03.811Z,34.65
2023-07-17T06:52:43.566Z,37.57
2023-07-17T06:54:23.327Z,35.52
2023-07-17T06:56:03.106Z,36.91
2023-07-17T06:57:42.871Z,34.62
2023-07-17T06:59:22.649Z,35.48
2023-07-17T07:01:02.485Z,35.52
2023-07-17T07:02:42.185Z,34.88
2023-07-17T07:04:21.972Z,36.02
2023-07-17T07:06:01.786Z,36.66
2023-07-17T07:07:41.500Z,35.22
2023-07-17T07:09:21.275Z,34.68
2023-07-17T07:11:01.072Z,36.11
2023-07-17T07:12:40.811Z,34.66
2023-07-17T07:14:20.575Z,35.81
2023-07-17T07:16:00.474Z,35.5
2023-07-17T07:17:40.125Z,34.07
2023-07-17T07:19:19.898Z,35.5
2023-07-17T07:20:59.668Z,34.91
2023-07-17T07:22:39.435Z,35.81
2023-07-17T07:24:19.200Z,36.95
2023-07-17T07:25:58.977Z,35.23
2023-07-17T07:27:38.741Z,35.5
2023-07-17T07:29:18.515Z,34.65
2023-07-17T07:30:58.435Z,33.4
2023-07-17T07:32:38.057Z,33.75
2023-07-17T07:34:17.826Z,34.89
2023-07-17T07:35:57.611Z,34.91
2023-07-17T07:37:37.378Z,36.36
2023-07-17T07:39:17.135Z,34.64
2023-07-17T07:40:56.909Z,35.22
2023-07-17T07:42:36.675Z,35.5
2023-07-17T07:44:16.476Z,34.06
2023-07-17T07:45:56.222Z,34.33
2023-07-17T07:47:36.017Z,35.5
2023-07-17T07:49:15.760Z,34.91
2023-07-17T07:50:55.545Z,34.63
2023-07-17T07:52:35.302Z,35.49
2023-07-17T07:54:15.065Z,33.75
2023-07-17T07:55:54.842Z,32.88
2023-07-17T07:57:34.625Z,35.49
2023-07-17T07:59:14.394Z,33.46
2023-07-17T08:00:54.184Z,35.28
2023-07-17T08:02:33.938Z,34.62
2023-07-17T08:04:13.709Z,34.9
2023-07-17T08:05:53.463Z,34.9
2023-07-17T08:07:33.258Z,34.03
2023-07-17T08:09:13.013Z,0
2023-07-17T08:10:52.776Z,0
2023-07-17T08:12:32.601Z,0
2023-07-17T08:14:12.354Z,0
2023-07-17T08:15:52.084Z,0
2023-07-17T08:17:31.859Z,0
2023-07-17T08:19:11.632Z,0
2023-07-17T08:20:51.461Z,0
2023-07-17T08:22:31.176Z,0
2023-07-17T08:24:11.269Z,3.78
2023-07-17T08:25:50.937Z,4.05
2023-07-17T08:27:30.669Z,4.86
2023-07-17T08:29:10.396Z,5.13
2023-07-17T08:30:50.222Z,4.05
2023-07-17T08:32:29.910Z,4.59
2023-07-17T08:34:09.754Z,5.4
2023-07-17T08:35:49.395Z,4.59
2023-07-17T08:37:29.307Z,5.13
2023-07-17T08:39:09.072Z,4.86
2023-07-17T08:40:48.797Z,5.4
2023-07-17T08:42:28.692Z,5.67
2023-07-17T08:44:08.286Z,5.13
2023-07-17T08:45:48.125Z,5.4
2023-07-17T08:47:27.968Z,5.4
2023-07-17T08:49:07.538Z,5.67
2023-07-17T08:50:47.440Z,5.67
2023-07-17T08:52:27.037Z,4.03
2023-07-17T08:54:06.812Z,4.59
2023-07-17T08:55:46.771Z,4.32
2023-07-17T08:57:26.513Z,4.59
2023-07-17T08:59:06.279Z,5.94
2023-07-17T09:00:45.890Z,6.48
2023-07-17T09:02:25.865Z,5.67
2023-07-17T09:04:05.639Z,4.32
2023-07-17T09:05:45.295Z,5.67
2023-07-17T09:07:25.174Z,6.74
2023-07-17T09:09:04.953Z,6.48
2023-07-17T09:10:44.729Z,6.48
2023-07-17T09:12:24.476Z,5.94
2023-07-17T09:14:04.191Z,6.2
2023-07-17T09:15:44.052Z,5.93
2023-07-17T09:17:23.634Z,6.47
2023-07-17T09:19:03.577Z,7.78
2023-07-17T09:20:43.330Z,6.2
2023-07-17T09:22:23.177Z,5.39
2023-07-17T09:24:02.924Z,5.66
2023-07-17T09:25:42.596Z,4.85
2023-07-17T09:27:22.484Z,4.31
2023-07-17T09:29:02.202Z,4.58
2023-07-17T09:30:42.015Z,4.85
2023-07-17T09:32:21.527Z,4.04
2023-07-17T09:34:01.348Z,6.2
2023-07-17T09:35:41.335Z,5.12
2023-07-17T09:37:21.142Z,5.93
2023-07-17T09:39:00.926Z,4.58
2023-07-17T09:40:40.583Z,5.66
2023-07-17T09:42:20.359Z,5.39
2023-07-17T09:43:59.957Z,5.66
2023-07-17T09:45:39.841Z,5.66
2023-07-17T09:47:19.620Z,5.12
2023-07-17T09:48:59.432Z,5.12
2023-07-17T09:50:39.198Z,4.31
2023-07-17T09:52:18.953Z,4.31
2023-07-17T09:53:58.571Z,5.12
2023-07-17T09:55:38.566Z,6.2
2023-07-17T09:57:18.176Z,5.12
2023-07-17T09:58:57.937Z,5.92
2023-07-17T10:00:37.781Z,4.31
2023-07-17T10:02:17.410Z,5.12
2023-07-17T10:03:57.325Z,5.12
2023-07-17T10:05:37.041Z,5.66
2023-07-17T10:07:16.704Z,4.31
2023-07-17T10:08:56.619Z,4.58
2023-07-17T10:10:36.427Z,4.84
2023-07-17T10:12:16.185Z,4.58
2023-07-17T10:13:55.865Z,4.84
2023-07-17T10:15:35.742Z,4.3
2023-07-17T10:17:15.402Z,4.85
2023-07-17T10:18:55.219Z,5.66
2023-07-17T10:20:34.867Z,4.84
2023-07-17T10:22:14.643Z,5.65
2023-07-17T10:23:54.434Z,4.85
2023-07-17T10:25:34.186Z,5.12
2023-07-17T10:27:13.964Z,5.38
2023-07-17T10:28:53.787Z,4.31
2023-07-17T10:30:33.546Z,4.84
2023-07-17T10:32:13.392Z,4.57
2023-07-17T10:33:53.087Z,4.57
2023-07-17T10:35:32.810Z,5.11
2023-07-17T10:37:12.620Z,5.35
2023-07-17T10:38:52.551Z,4.57
2023-07-17T10:40:32.132Z,4.57
2023-07-17T10:42:11.901Z,5.38
2023-07-17T10:43:51.664Z,4.84
2023-07-17T10:45:31.465Z,5.11
2023-07-17T10:47:11.203Z,3.77
2023-07-17T10:48:50.989Z,5.11
2023-07-17T10:50:30.899Z,4.84
2023-07-17T10:52:10.669Z,5.11
2023-07-17T10:53:50.287Z,5.65
2023-07-17T10:55:30.097Z,4.31
2023-07-17T10:57:09.830Z,4.3
2023-07-17T10:58:49.623Z,4.57
2023-07-17T11:00:29.374Z,5.11
2023-07-17T11:02:09.217Z,5.11
2023-07-17T11:03:49.097Z,4.84
2023-07-17T11:05:28.708Z,5.11
2023-07-17T11:07:08.460Z,4.57
2023-07-17T11:08:48.259Z,5.38
2023-07-17T11:10:28.002Z,4.57
2023-07-17T11:12:07.782Z,4.84
2023-07-17T11:13:47.537Z,4.84
2023-07-17T11:15:27.321Z,4.31
2023-07-17T11:17:07.062Z,4.31
2023-07-17T11:18:46.870Z,4.84
2023-07-17T11:20:26.666Z,5.11
2023-07-17T11:22:06.518Z,4.31
2023-07-17T11:23:46.219Z,4.03
2023-07-17T11:25:26.014Z,4.57
2023-07-17T11:27:05.740Z,4.57
2023-07-17T11:28:45.533Z,4.57
2023-07-17T11:30:25.251Z,4.3
2023-07-17T11:32:05.036Z,4.03
2023-07-17T11:33:44.784Z,4.57
2023-07-17T11:35:24.560Z,4.3
2023-07-17T11:37:04.459Z,4.84
2023-07-17T11:38:44.107Z,4.3
2023-07-17T11:40:23.870Z,4.57
2023-07-17T11:42:03.720Z,4.57
2023-07-17T11:43:43.531Z,4.84
2023-07-17T11:45:23.193Z,4.3
2023-07-17T11:47:03.024Z,4.3
2023-07-17T11:48:42.727Z,4.3
2023-07-17T11:50:22.492Z,5.11
2023-07-17T11:52:02.417Z,4.3
2023-07-17T11:53:42.041Z,4.57
2023-07-17T11:55:21.807Z,5.35
2023-07-17T11:57:01.566Z,4.84
2023-07-17T11:58:41.335Z,4.84
2023-07-17T12:00:21.212Z,4.57
2023-07-17T12:02:00.992Z,4.3
2023-07-17T12:03:40.738Z,4.84
2023-07-17T12:05:20.539Z,4.84
2023-07-17T12:07:00.337Z,4.3
2023-07-17T12:08:40.109Z,5.11
2023-07-17T12:10:19.823Z,4.84
2023-07-17T12:11:59.747Z,4.3
2023-07-17T12:13:39.394Z,4.3
2023-07-17T12:15:19.286Z,4.3
2023-07-17T12:16:58.960Z,3.76
2023-07-17T12:18:38.778Z,4.3
2023-07-17T12:20:18.551Z,5.38
2023-07-17T12:21:58.126Z,4.57
2023-07-17T12:23:37.907Z,4.3
2023-07-17T12:25:17.854Z,5.1
2023-07-17T12:26:57.627Z,5.11
2023-07-17T12:28:37.342Z,4.3
2023-07-17T12:30:17.105Z,4.3
2023-07-17T12:31:56.858Z,3.49
2023-07-17T12:33:36.610Z,4.3
2023-07-17T12:35:16.456Z,4.57
2023-07-17T12:36:56.265Z,4.03
2023-07-17T12:38:35.932Z,2.95
2023-07-17T12:40:15.644Z,4.57
2023-07-17T12:41:55.476Z,4.03
2023-07-17T12:43:35.315Z,4.57
2023-07-17T12:45:15.050Z,4.56
2023-07-17T12:46:54.929Z,4.56
2023-07-17T12:48:34.713Z,4.57
2023-07-17T12:50:14.235Z,3.22
2023-07-17T12:51:54.066Z,4.57
2023-07-17T12:53:33.795Z,4.56
2023-07-17T12:55:13.598Z,4.57
2023-07-17T12:56:53.413Z,3.76
2023-07-17T12:58:33.096Z,4.03
2023-07-17T13:00:12.935Z,4.56
2023-07-17T13:01:52.687Z,4.3
2023-07-17T13:03:32.447Z,4.03
2023-07-17T13:05:12.221Z,4.3
2023-07-17T13:06:51.997Z,4.56
2023-07-17T13:08:31.716Z,3.76
2023-07-17T13:10:11.482Z,4.3
2023-07-17T13:11:51.263Z,4.03
2023-07-17T13:13:31.015Z,4
2023-07-17T13:15:10.791Z,4.03
2023-07-17T13:16:50.609Z,4.29
2023-07-17T13:18:30.386Z,4.03
2023-07-17T13:20:10.178Z,4.3
2023-07-17T13:21:49.875Z,4.56
2023-07-17T13:23:29.681Z,4.29
2023-07-17T13:25:09.514Z,4.02
2023-07-17T13:26:49.180Z,3.75
2023-07-17T13:28:29.169Z,4.83
2023-07-17T13:30:08.726Z,3.76
2023-07-17T13:31:48.617Z,4.56
2023-07-17T13:33:28.465Z,4.03
2023-07-17T13:35:08.155Z,3.49
2023-07-17T13:36:47.874Z,4.29
2023-07-17T13:38:27.579Z,4.29
2023-07-17T13:40:07.531Z,6.69
2023-07-17T13:41:47.249Z,3.76
2023-07-17T13:43:27.064Z,4.83
2023-07-17T13:45:06.706Z,4.03
2023-07-17T13:46:46.563Z,4.03
2023-07-17T13:48:26.319Z,4.03
2023-07-17T13:50:06.031Z,3.76
2023-07-17T13:51:45.791Z,4.03
2023-07-17T13:53:25.620Z,4.56
2023-07-17T13:55:05.280Z,4.03
2023-07-17T13:56:45.063Z,3.76
2023-07-17T13:58:24.869Z,4.56
2023-07-17T14:00:04.609Z,3.76
2023-07-17T14:01:44.356Z,3.22
2023-07-17T14:03:24.164Z,4.29
2023-07-17T14:05:03.950Z,4.29
2023-07-17T14:06:43.707Z,4.03
2023-07-17T14:08:23.456Z,4.03
2023-07-17T14:10:03.274Z,4.56
2023-07-17T14:11:43.072Z,4.56
2023-07-17T14:13:22.945Z,3.76
2023-07-17T14:15:02.598Z,4.83
2023-07-17T14:16:42.307Z,4.29
2023-07-17T14:18:22.205Z,3.76
2023-07-17T14:20:01.838Z,4.29
2023-07-17T14:21:41.620Z,3.49
2023-07-17T14:23:21.399Z,3.75
2023-07-17T14:25:01.185Z,4.29
2023-07-17T14:26:41.030Z,4.29
2023-07-17T14:28:20.695Z,3.22
2023-07-17T14:30:00.525Z,4.56
2023-07-17T14:31:40.291Z,3.75
2023-07-17T14:33:20.009Z,4.83
2023-07-17T14:34:59.922Z,3.75
2023-07-17T14:36:39.719Z,4.83
2023-07-17T14:38:19.424Z,3.22
2023-07-17T14:39:59.180Z,4.02
2023-07-17T14:41:38.868Z,4.02
2023-07-17T14:43:18.631Z,2.95
2023-07-17T14:44:58.456Z,4.02
2023-07-17T14:46:38.335Z,5.37
2023-07-17T14:48:17.954Z,3.49
2023-07-17T14:49:57.714Z,4.83
2023-07-17T14:51:37.525Z,2.95
2023-07-17T14:53:17.260Z,4.29
2023-07-17T14:54:57.062Z,2.68
2023-07-17T14:56:36.798Z,3.22
2023-07-17T14:58:16.577Z,2.94
2023-07-17T14:59:56.347Z,3.22
2023-07-17T15:01:36.196Z,4.29
2023-07-17T15:03:15.929Z,4.83
2023-07-17T15:04:55.710Z,2.95
2023-07-17T15:06:35.424Z,2.68
2023-07-17T15:08:15.210Z,4.56
2023-07-17T15:09:54.955Z,2.95
2023-07-17T15:11:34.732Z,4.83
2023-07-17T15:13:14.516Z,4.29
2023-07-17T15:14:54.281Z,2.95
2023-07-17T15:16:34.068Z,2.95
2023-07-17T15:18:13.836Z,4.56
2023-07-17T15:19:53.575Z,4.56
2023-07-17T15:21:33.438Z,3.22
2023-07-17T15:23:13.119Z,2.95
2023-07-17T15:24:52.895Z,4.56
2023-07-17T15:26:32.661Z,5.36
2023-07-17T15:28:12.481Z,3.75
2023-07-17T15:29:52.231Z,3.22
2023-07-17T15:31:32.002Z,3.22
2023-07-17T15:33:11.761Z,2.68
2023-07-17T15:34:51.538Z,4.56
2023-07-17T15:36:31.433Z,4.29
2023-07-17T15:38:11.058Z,3.49
2023-07-17T15:39:50.829Z,3.22
2023-07-17T15:41:30.642Z,4.02
2023-07-17T15:43:10.378Z,3.21
2023-07-17T15:44:50.147Z,4.55
2023-07-17T15:46:29.907Z,3.21
2023-07-17T15:48:09.668Z,4.29
2023-07-17T15:49:49.477Z,2.93
2023-07-17T15:51:29.257Z,3.21
2023-07-17T15:53:08.994Z,3.48
2023-07-17T15:54:48.784Z,3.21
2023-07-17T15:56:28.532Z,4.29
2023-07-17T15:58:08.311Z,3.75
2023-07-17T15:59:48.122Z,2.95
2023-07-17T16:01:27.845Z,2.95
2023-07-17T16:03:07.656Z,4.02
2023-07-17T16:04:47.393Z,3.48
2023-07-17T16:06:27.263Z,2.95
2023-07-17T16:08:06.927Z,4.29
2023-07-17T16:09:46.696Z,2.95
2023-07-17T16:11:26.505Z,2.95
2023-07-17T16:13:06.251Z,2.68
2023-07-17T16:14:46.103Z,4.02
2023-07-17T16:16:25.895Z,3.75
2023-07-17T16:18:05.614Z,3.21
2023-07-17T16:19:45.339Z,3.48
2023-07-17T16:21:25.113Z,2.95
2023-07-17T16:23:04.887Z,4.02
2023-07-17T16:24:44.639Z,3.48
2023-07-17T16:26:24.422Z,3.75
2023-07-17T16:28:04.209Z,4.29
2023-07-17T16:29:43.940Z,2.95
2023-07-17T16:31:23.718Z,3.75
2023-07-17T16:33:03.506Z,3.48
2023-07-17T16:34:43.300Z,3.75
2023-07-17T16:36:23.170Z,3.75
2023-07-17T16:38:02.808Z,3.21
2023-07-17T16:39:42.585Z,3.48
2023-07-17T16:41:22.343Z,4.02
2023-07-17T16:43:02.261Z,4.29
2023-07-17T16:44:41.977Z,4.29
2023-07-17T16:46:21.678Z,4.02
2023-07-17T16:48:01.454Z,4.56
2023-07-17T16:49:41.202Z,4.02
2023-07-17T16:51:20.964Z,3.22
2023-07-17T16:53:00.767Z,3.75
2023-07-17T16:54:40.500Z,3.75
2023-07-17T16:56:20.275Z,4.29
2023-07-17T16:58:00.041Z,4.02
2023-07-17T16:59:39.828Z,4.02
2023-07-17T17:01:19.583Z,3.48
2023-07-17T17:02:59.375Z,3.48
2023-07-17T17:04:39.128Z,3.48
2023-07-17T17:06:18.905Z,2.68
2023-07-17T17:07:58.671Z,3.75
2023-07-17T17:09:38.506Z,3.48
2023-07-17T17:11:18.229Z,4.02
2023-07-17T17:12:58.023Z,3.75
2023-07-17T17:14:37.765Z,2.95
2023-07-17T17:16:17.529Z,3.49
2023-07-17T17:17:57.295Z,4.56
2023-07-17T17:19:37.065Z,5.37
2023-07-17T17:21:16.846Z,5.63
2023-07-17T17:22:56.610Z,3.49
2023-07-17T17:24:36.421Z,5.1
2023-07-17T17:26:16.144Z,3.22
2023-07-17T17:27:55.916Z,4.02
2023-07-17T17:29:35.826Z,3.49
2023-07-17T17:31:15.472Z,3.49
2023-07-17T17:32:55.426Z,3.22
2023-07-17T17:34:35.011Z,2.4
2023-07-17T17:36:14.881Z,3.49
2023-07-17T17:37:54.554Z,4.03
2023-07-17T17:39:34.317Z,4.29
2023-07-17T17:41:14.100Z,4.02
2023-07-17T17:42:53.859Z,2.95
2023-07-17T17:44:33.650Z,4.02
2023-07-17T17:46:13.457Z,2.68
2023-07-17T17:47:53.176Z,4.29
2023-07-17T17:49:32.947Z,4.83
2023-07-17T17:51:12.706Z,4.02
2023-07-17T17:52:52.516Z,3.49
2023-07-17T17:54:32.331Z,4.29
2023-07-17T17:56:12.021Z,2.95
2023-07-17T17:57:51.894Z,4.03
2023-07-17T17:59:31.612Z,4.56
2023-07-17T18:01:11.336Z,3.49
2023-07-17T18:02:51.099Z,4.83
2023-07-17T18:04:30.878Z,4.56
2023-07-17T18:06:10.634Z,4.03
2023-07-17T18:07:50.410Z,3.76
2023-07-17T18:09:30.175Z,4.56
2023-07-17T18:11:09.960Z,4.56
2023-07-17T18:12:49.729Z,4.57
2023-07-17T18:14:29.506Z,4.3
2023-07-17T18:16:09.273Z,5.1
2023-07-17T18:17:49.045Z,4.83
2023-07-17T18:19:28.885Z,4.03
2023-07-17T18:21:08.591Z,4.3
2023-07-17T18:22:48.357Z,4.3
2023-07-17T18:24:28.125Z,4.84
2023-07-17T18:26:07.941Z,3.48
2023-07-17T18:27:47.662Z,4.57
2023-07-17T18:29:27.426Z,5.11
2023-07-17T18:31:07.185Z,4.57
2023-07-17T18:32:46.970Z,4.84
2023-07-17T18:34:26.736Z,4.84
2023-07-17T18:36:06.537Z,4.03
2023-07-17T18:37:46.353Z,4.03
2023-07-17T18:39:26.052Z,4.3
2023-07-17T18:41:05.837Z,4.3
2023-07-17T18:42:45.631Z,3.49
2023-07-17T18:44:25.374Z,2.95
2023-07-17T18:46:05.161Z,0.8
2023-07-17T18:47:44.929Z,0
2023-07-17T18:49:24.670Z,0
2023-07-17T18:51:04.428Z,0
2023-07-17T18:52:44.246Z,3.18
2023-07-17T18:54:24.005Z,0
2023-07-17T18:56:03.766Z,0
2023-07-17T18:57:43.530Z,0
2023-07-17T18:59:23.289Z,0
2023-07-17T19:01:03.058Z,0
2023-07-17T19:02:42.844Z,0
2023-07-17T19:04:22.585Z,0
2023-07-17T19:06:02.361Z,0
2023-07-17T19:07:42.124Z,0
2023-07-17T19:09:21.899Z,0
2023-07-17T19:11:01.662Z,0
2023-07-17T19:12:41.464Z,0
2023-07-17T19:14:21.198Z,0
2023-07-17T19:16:00.962Z,0
2023-07-17T19:17:40.727Z,0
2023-07-17T19:19:20.500Z,0
2023-07-17T19:21:00.284Z,0
2023-07-17T19:22:40.057Z,0
2023-07-17T19:24:19.787Z,0
2023-07-17T19:25:59.569Z,0
2023-07-17T19:27:39.340Z,0
2023-07-17T19:29:19.125Z,0
2023-07-17T19:30:58.882Z,0
2023-07-17T19:32:38.626Z,0
2023-07-17T19:34:18.410Z,0
2023-07-17T19:35:58.211Z,0
2023-07-17T19:37:37.953Z,0
2023-07-17T19:39:17.709Z,0
2023-07-17T19:40:57.483Z,0
2023-07-17T19:42:37.236Z,0
2023-07-17T19:44:17.009Z,0
2023-07-17T19:45:56.791Z,0
2023-07-17T19:47:36.536Z,0
2023-07-17T19:49:16.325Z,0
2023-07-17T19:50:56.081Z,0
2023-07-17T19:52:35.859Z,0
2023-07-17T19:54:15.651Z,0
2023-07-17T19:55:55.514Z,0
2023-07-17T19:57:35.179Z,0
2023-07-17T19:59:14.908Z,0
2023-07-17T20:00:54.682Z,0
2023-07-17T20:02:34.461Z,0
2023-07-17T20:04:14.336Z,0
2023-07-17T20:05:53.983Z,0
2023-07-17T20:07:33.810Z,0
2023-07-17T20:09:13.569Z,0
2023-07-17T20:10:53.363Z,0
2023-07-17T20:12:33.145Z,0
2023-07-17T20:14:12.827Z,0
2023-07-17T20:15:52.600Z,0
2023-07-17T20:17:32.379Z,0
2023-07-17T20:19:12.179Z,0
2023-07-17T20:20:51.888Z,0
2023-07-17T20:22:31.670Z,0
2023-07-17T20:24:11.455Z,0
2023-07-17T20:25:51.193Z,0
2023-07-17T20:27:31.028Z,0
2023-07-17T20:29:10.760Z,0
2023-07-17T20:30:50.617Z,0
2023-07-17T20:32:30.259Z,0
2023-07-17T20:34:10.037Z,0
2023-07-17T20:35:49.803Z,0
2023-07-17T20:37:29.572Z,0
2023-07-17T20:39:09.329Z,0
2023-07-17T20:40:49.107Z,0
2023-07-17T20:42:28.871Z,0
2023-07-17T20:44:08.718Z,0
2023-07-17T20:45:48.568Z,0
2023-07-17T20:47:28.283Z,0
2023-07-17T20:49:07.988Z,0
2023-07-17T20:50:47.713Z,0
2023-07-17T20:52:27.486Z,0
2023-07-17T20:54:07.324Z,0
2023-07-17T20:55:47.030Z,0
2023-07-17T20:57:26.805Z,0
2023-07-17T20:59:06.546Z,0
2023-07-17T21:00:46.315Z,0
2023-07-17T21:02:26.128Z,0
2023-07-17T21:04:05.924Z,0
2023-07-17T21:05:45.681Z,0
2023-07-17T21:07:25.430Z,0
2023-07-17T21:09:05.212Z,0
2023-07-17T21:10:44.929Z,0
2023-07-17T21:12:24.681Z,0
2023-07-17T21:14:04.456Z,0
2023-07-17T21:15:44.222Z,0
2023-07-17T21:17:23.992Z,0
2023-07-17T21:19:03.856Z,0
2023-07-17T21:20:43.536Z,0
2023-07-17T21:22:23.341Z,0
2023-07-17T21:24:03.076Z,0
2023-07-17T21:25:42.835Z,0
2023-07-17T21:27:22.673Z,0
2023-07-17T21:29:02.363Z,0
2023-07-17T21:30:42.128Z,0
2023-07-17T21:32:21.955Z,0
2023-07-17T21:34:01.701Z,0
2023-07-17T21:35:41.538Z,0
2023-07-17T21:37:21.236Z,0
2023-07-17T21:39:00.985Z,0
2023-07-17T21:40:40.758Z,0
2023-07-17T21:42:20.536Z,0
2023-07-17T21:44:00.433Z,0
2023-07-17T21:45:40.128Z,0
2023-07-17T21:47:19.858Z,0
2023-07-17T21:48:59.579Z,0
2023-07-17T21:50:39.582Z,0
2023-07-17T21:52:19.152Z,0
2023-07-17T21:53:58.904Z,0
2023-07-17T21:55:38.651Z,0
2023-07-17T21:57:18.444Z,0
2023-07-17T21:58:58.223Z,0
2023-07-17T22:00:37.978Z,0
2023-07-17T22:02:17.733Z,0
2023-07-17T22:03:57.487Z,0
2023-07-17T22:05:37.291Z,0
2023-07-17T22:07:17.024Z,0
2023-07-17T22:08:56.791Z,0
2023-07-17T22:10:36.586Z,0
2023-07-17T22:12:16.324Z,0
2023-07-17T22:13:56.090Z,0
2023-07-17T22:15:35.872Z,0
2023-07-17T22:17:15.624Z,0
2023-07-17T22:18:55.398Z,0
2023-07-17T22:20:35.298Z,0
2023-07-17T22:22:14.947Z,0
2023-07-17T22:23:54.696Z,0
2023-07-17T22:25:34.466Z,0
2023-07-17T22:27:14.308Z,0
2023-07-17T22:28:54.015Z,0
2023-07-17T22:30:33.773Z,0
2023-07-17T22:32:13.538Z,0
2023-07-17T22:33:53.304Z,0
2023-07-17T22:35:33.079Z,0
2023-07-17T22:37:12.920Z,0
2023-07-17T22:38:52.600Z,0
2023-07-17T22:40:32.445Z,0
2023-07-17T22:42:12.187Z,0
2023-07-17T22:43:51.977Z,0
2023-07-17T22:45:31.688Z,0
2023-07-17T22:47:11.453Z,0
2023-07-17T22:48:51.217Z,0
2023-07-17T22:50:31.077Z,0